Time;durP1;ratioP1;P1;durP2;ratioP2;P2;SDS_P1;SDS_P2;PMS_P1;PMS_P2;Temp;Humidity;BMP_temperature;BMP_pressure;BME280_temperature;BME280_humidity;BME280_pressure;Samples;Min_cycle;Max_cycle;Signal;HPM_P1;HPM_P2
2022/01/25 00:24:22;;;;;;;71.60;41.17;;;0.90;99.90;;;;;;4980318;28;20038;-83
2022/01/25 00:27:12;;;;;;;77.53;42.67;;;0.90;99.90;;;;;;4979925;28;20038;-83
2022/01/25 00:32:12;;;;;;;76.10;44.58;;;1.00;99.90;;;;;;5002748;28;20030;-82
2022/01/25 00:34:38;;;;;;;90.25;48.20;;;1.00;99.90;;;;;;5008015;28;20026;-82
2022/01/25 00:37:04;;;;;;;78.90;42.42;;;1.00;99.90;;;;;;5000509;28;20443;-83
2022/01/25 00:39:31;;;;;;;89.82;48.35;;;1.00;99.90;;;;;;4999027;28;20018;-83
2022/01/25 00:41:57;;;;;;;77.15;43.53;;;1.00;99.90;;;;;;4999256;28;20026;-82
2022/01/25 00:44:24;;;;;;;79.20;44.60;;;1.00;99.90;;;;;;4981497;28;20023;-83
2022/01/25 00:46:53;;;;;;;85.07;45.83;;;1.00;99.90;;;;;;4998881;28;20029;-82
2022/01/25 00:49:27;;;;;;;361.35;183.38;;;1.00;99.90;;;;;;4999144;28;20098;-82
2022/01/25 00:56:50;;;;;;;245.00;101.80;;;1.00;99.90;;;;;;4986333;28;20026;-82
2022/01/25 00:59:24;;;;;;;116.22;54.67;;;1.00;99.90;;;;;;4999428;28;20097;-81
2022/01/25 01:01:54;;;;;;;188.20;82.90;;;1.10;99.90;;;;;;4981792;28;20165;-82
2022/01/25 01:04:20;;;;;;;115.63;56.65;;;1.10;99.90;;;;;;4999148;28;20022;-82
2022/01/25 01:06:47;;;;;;;175.23;83.93;;;1.10;99.90;;;;;;4981112;28;20065;-82
2022/01/25 01:09:15;;;;;;;100.57;51.95;;;1.10;99.90;;;;;;4980561;28;20023;-82
2022/01/25 01:11:50;;;;;;;104.38;50.92;;;1.00;99.90;;;;;;4998656;28;20054;-82
2022/01/25 01:14:36;;;;;;;108.75;51.35;;;1.10;99.90;;;;;;4981378;28;20027;-82
2022/01/25 01:31:18;;;;;;;95.55;45.00;;;1.00;99.90;;;;;;4986986;28;20068;-82
2022/01/25 01:33:59;;;;;;;90.10;44.05;;;1.00;99.90;;;;;;4998680;28;20030;-82
2022/01/25 01:42:10;;;;;;;97.22;47.80;;;0.80;99.90;;;;;;4999742;28;20037;-82
2022/01/25 01:44:53;;;;;;;91.20;45.42;;;0.90;99.90;;;;;;4998140;28;20030;-82
2022/01/25 01:50:29;;;;;;;101.93;49.80;;;0.80;99.90;;;;;;4926706;29;20158;-82
2022/01/25 01:52:55;;;;;;;92.68;47.63;;;0.70;99.90;;;;;;4937569;29;20546;-82
2022/01/25 01:55:25;;;;;;;87.13;45.17;;;0.70;99.90;;;;;;4968441;28;20121;-82
2022/01/25 01:57:51;;;;;;;94.40;46.60;;;0.70;99.90;;;;;;4997332;28;20026;-82
2022/01/25 02:00:20;;;;;;;102.93;48.28;;;0.70;99.90;;;;;;4997790;28;20029;-82
2022/01/25 02:02:47;;;;;;;101.00;49.33;;;0.70;99.90;;;;;;4980476;28;20061;-82
2022/01/25 02:05:13;;;;;;;105.28;49.30;;;0.70;99.90;;;;;;4997929;28;20053;-83
2022/01/25 02:07:39;;;;;;;119.25;50.38;;;0.80;99.90;;;;;;4980417;28;20027;-82
2022/01/25 02:10:06;;;;;;;102.20;45.85;;;0.80;99.90;;;;;;4998219;28;20037;-82
2022/01/25 02:12:33;;;;;;;90.85;45.60;;;0.70;99.90;;;;;;4997905;28;20030;-82
2022/01/25 02:15:01;;;;;;;102.50;45.78;;;0.70;99.90;;;;;;4999953;28;20096;-82
2022/01/25 02:23:23;;;;;;;86.75;43.42;;;0.50;99.90;;;;;;4989565;28;20038;-81
2022/01/25 02:25:56;;;;;;;89.75;42.28;;;0.50;99.90;;;;;;5002960;28;20018;-82
2022/01/25 02:28:25;;;;;;;82.47;43.90;;;0.40;99.90;;;;;;5002898;28;20019;-82
2022/01/25 02:30:51;;;;;;;84.93;44.03;;;0.40;99.90;;;;;;4989445;28;20099;-81
2022/01/25 02:33:17;;;;;;;87.93;45.08;;;0.40;99.90;;;;;;4984235;28;20030;-81
2022/01/25 02:35:43;;;;;;;91.18;46.17;;;0.40;99.90;;;;;;5004277;28;20050;-82
2022/01/25 02:38:09;;;;;;;100.72;47.47;;;0.30;99.90;;;;;;5001459;28;20030;-82
2022/01/25 02:40:35;;;;;;;82.75;45.92;;;0.40;99.90;;;;;;4983902;28;20025;-82
2022/01/25 02:43:02;;;;;;;81.78;43.92;;;0.30;99.90;;;;;;5001372;28;20556;-82
2022/01/25 02:45:33;;;;;;;85.45;44.80;;;0.30;99.90;;;;;;4984335;28;20029;-81
2022/01/25 02:50:45;;;;;;;73.82;42.92;;;0.20;99.90;;;;;;5002176;28;20049;-82
2022/01/25 02:53:10;;;;;;;89.18;46.05;;;0.10;99.90;;;;;;5001224;28;20026;-83
2022/01/25 02:55:39;;;;;;;76.88;44.40;;;0.10;99.90;;;;;;5001571;28;20033;-82
2022/01/25 02:58:05;;;;;;;81.82;43.05;;;0.00;99.90;;;;;;4984646;28;20085;-82
2022/01/25 03:00:32;;;;;;;77.60;44.60;;;0.00;99.90;;;;;;4985203;28;20053;-82
2022/01/25 03:02:58;;;;;;;112.80;51.08;;;-0.10;99.90;;;;;;5002543;28;20030;-82
2022/01/25 03:05:24;;;;;;;119.88;52.25;;;-0.10;99.90;;;;;;5001832;28;20033;-82
2022/01/25 03:07:50;;;;;;;123.07;49.35;;;-0.20;99.90;;;;;;5009007;28;20030;-82
2022/01/25 03:10:16;;;;;;;107.97;50.65;;;-0.20;99.90;;;;;;5001257;28;20383;-82
2022/01/25 03:12:48;;;;;;;102.20;48.75;;;-0.30;99.90;;;;;;5000962;28;20486;-82
2022/01/25 03:17:52;;;;;;;98.68;46.78;;;-0.50;99.90;;;;;;5000627;28;20037;-82
2022/01/25 03:20:22;;;;;;;82.18;46.78;;;-0.50;99.90;;;;;;4988460;28;20026;-82
2022/01/25 03:25:25;;;;;;;85.88;46.03;;;-0.60;99.90;;;;;;5000570;28;20026;-82
2022/01/25 03:27:51;;;;;;;82.45;43.15;;;-0.60;99.90;;;;;;5000432;28;20101;-82
2022/01/25 03:30:17;;;;;;;85.88;45.22;;;-0.60;99.90;;;;;;5000676;28;20043;-82
2022/01/25 03:32:43;;;;;;;84.35;45.72;;;-0.60;99.90;;;;;;5000909;28;20053;-82
2022/01/25 03:35:11;;;;;;;77.40;43.70;;;-0.60;99.90;;;;;;5002561;28;20080;-82
2022/01/25 03:37:37;;;;;;;97.38;47.35;;;-0.60;99.90;;;;;;5000963;28;20034;-82
2022/01/25 03:40:03;;;;;;;89.97;46.58;;;-0.60;99.90;;;;;;5001276;28;20033;-82
2022/01/25 03:42:29;;;;;;;81.90;45.17;;;-0.60;99.90;;;;;;5001100;28;20023;-83
2022/01/25 03:44:56;;;;;;;76.60;44.95;;;-0.60;99.90;;;;;;5001351;28;20379;-82
2022/01/25 03:47:30;;;;;;;86.15;43.45;;;-0.60;99.90;;;;;;4983940;28;20022;-82
2022/01/25 03:49:56;;;;;;;81.35;43.97;;;-0.60;99.90;;;;;;4983901;28;20057;-83
2022/01/25 03:52:32;;;;;;;75.13;41.20;;;-0.60;99.90;;;;;;4983395;28;20053;-82
2022/01/25 03:54:59;;;;;;;73.07;43.63;;;-0.50;99.90;;;;;;5001753;28;20026;-82
2022/01/25 03:57:26;;;;;;;88.50;46.03;;;-0.50;99.90;;;;;;5017158;28;20560;-82
2022/01/25 03:59:52;;;;;;;92.13;45.78;;;-0.40;99.90;;;;;;5001877;28;20014;-82
2022/01/25 04:02:18;;;;;;;92.93;45.97;;;-0.40;99.90;;;;;;5001398;28;20034;-83
2022/01/25 04:04:46;;;;;;;84.60;42.85;;;-0.40;99.90;;;;;;4984653;28;20026;-82
2022/01/25 04:07:14;;;;;;;83.38;42.92;;;-0.50;99.90;;;;;;5002383;28;20066;-83
2022/01/25 04:09:40;;;;;;;78.40;41.88;;;-0.40;99.90;;;;;;5018540;28;20026;-82
2022/01/25 04:12:07;;;;;;;78.55;40.50;;;-0.50;99.90;;;;;;4986698;28;20037;-83
2022/01/25 04:14:33;;;;;;;70.50;40.67;;;-0.50;99.90;;;;;;5004191;28;20026;-82
2022/01/25 04:17:04;;;;;;;83.82;42.33;;;-0.50;99.90;;;;;;4999436;28;20077;-82
2022/01/25 04:19:45;;;;;;;;;;;-0.60;99.90;;;;;;4974062;28;20023;-82
2022/01/25 04:27:24;;;;;;;88.68;45.28;;;-0.60;99.90;;;;;;5003875;28;20060;-83
2022/01/25 04:29:51;;;;;;;69.68;42.22;;;-0.60;99.90;;;;;;5002814;28;20058;-82
2022/01/25 04:32:17;;;;;;;87.10;44.40;;;-0.60;99.90;;;;;;5002441;28;20144;-82
2022/01/25 04:35:08;;;;;;;77.72;43.50;;;-0.70;99.90;;;;;;5002907;28;20037;-84
2022/01/25 04:54:10;;;;;;;69.10;39.42;;;-0.80;99.90;;;;;;4968743;28;20045;-84
2022/01/25 04:59:17;;;;;;;74.25;40.13;;;-0.80;99.90;;;;;;4999888;28;20018;-84
2022/01/25 05:01:44;;;;;;;86.88;42.95;;;-0.80;99.90;;;;;;5001181;28;20026;-84
2022/01/25 05:04:15;;;;;;;73.68;40.20;;;-0.90;99.90;;;;;;5000551;28;20077;-84
2022/01/25 05:06:44;;;;;;;77.88;41.95;;;-0.90;99.90;;;;;;5014964;28;20054;-84
2022/01/25 05:09:12;;;;;;;79.65;41.42;;;-0.80;99.90;;;;;;4999955;28;20042;-84
2022/01/25 05:11:44;;;;;;;77.15;43.42;;;-0.90;99.90;;;;;;5015041;28;20038;-84
2022/01/25 05:14:18;;;;;;;81.93;43.35;;;-0.90;99.90;;;;;;5015666;28;20113;-84
2022/01/25 05:16:51;;;;;;;68.25;39.72;;;-0.90;99.90;;;;;;5001312;28;20040;-84
2022/01/25 05:22:06;;;;;;;60.90;36.95;;;-0.90;99.90;;;;;;5006384;28;20117;-84
2022/01/25 05:24:40;;;;;;;60.25;35.88;;;-0.90;99.90;;;;;;4982626;28;20022;-84
2022/01/25 05:27:11;;;;;;;67.28;38.72;;;-1.00;99.90;;;;;;5000121;28;20026;-84
2022/01/25 05:29:37;;;;;;;74.03;36.45;;;-1.00;99.90;;;;;;4998840;28;20051;-84
2022/01/25 05:32:04;;;;;;;68.13;37.75;;;-1.00;99.90;;;;;;4998754;28;20026;-84
2022/01/25 05:34:30;;;;;;;70.07;38.75;;;-1.00;99.90;;;;;;4998687;28;20057;-84
2022/01/25 05:36:55;;;;;;;66.45;38.17;;;-0.90;99.90;;;;;;5001408;28;20030;-84
2022/01/25 05:39:27;;;;;;;69.45;38.40;;;-0.90;99.90;;;;;;5000719;28;20542;-83
2022/01/25 05:41:57;;;;;;;75.80;40.30;;;-1.00;99.90;;;;;;5000109;28;20023;-84
2022/01/25 05:44:57;;;;;;;65.50;39.00;;;-1.00;99.90;;;;;;4982949;28;20023;-84
2022/01/25 05:47:14;;;;;;;69.05;39.22;;;-1.00;99.90;;;;;;4999988;28;20034;-84
2022/01/25 05:49:41;;;;;;;77.00;41.13;;;-0.90;99.90;;;;;;4999561;28;20089;-84
2022/01/25 05:52:09;;;;;;;72.60;40.63;;;-0.90;99.90;;;;;;4982867;28;20050;-84
2022/01/25 05:54:36;;;;;;;80.95;42.10;;;-0.90;99.90;;;;;;4981922;28;20030;-84
2022/01/25 05:57:02;;;;;;;74.93;41.22;;;-0.90;99.90;;;;;;4980569;28;20031;-84
2022/01/25 05:59:28;;;;;;;65.60;40.13;;;-0.90;99.90;;;;;;4983066;28;20019;-84
2022/01/25 06:01:54;;;;;;;63.05;37.88;;;-0.90;99.90;;;;;;4984564;28;20582;-84
2022/01/25 06:04:22;;;;;;;67.50;39.25;;;-0.90;99.90;;;;;;4984833;28;20018;-84
2022/01/25 06:06:48;;;;;;;70.97;39.60;;;-1.00;99.90;;;;;;5001914;28;20425;-84
2022/01/25 06:09:14;;;;;;;67.15;38.53;;;-1.00;99.90;;;;;;4984691;28;20537;-84
2022/01/25 06:11:40;;;;;;;66.85;38.55;;;-1.00;99.90;;;;;;5002857;28;20121;-84
2022/01/25 06:14:06;;;;;;;67.25;40.63;;;-1.10;99.90;;;;;;5001695;28;20062;-84
2022/01/25 06:16:33;;;;;;;71.55;38.72;;;-1.10;99.90;;;;;;4984130;28;20050;-84
2022/01/25 06:18:59;;;;;;;70.32;40.00;;;-1.10;99.90;;;;;;4984379;28;20023;-84
2022/01/25 06:21:26;;;;;;;65.07;37.25;;;-1.10;99.90;;;;;;5007695;28;20026;-83
2022/01/25 06:23:52;;;;;;;69.00;39.90;;;-1.10;99.90;;;;;;5001383;28;20031;-84
2022/01/25 06:26:19;;;;;;;64.97;38.60;;;-1.10;99.90;;;;;;4984680;28;20037;-84
2022/01/25 06:28:45;;;;;;;62.80;38.60;;;-1.00;99.90;;;;;;4983570;28;20041;-84
2022/01/25 06:31:11;;;;;;;64.95;39.60;;;-1.00;99.90;;;;;;4983920;28;20022;-84
2022/01/25 06:33:42;;;;;;;66.90;39.53;;;-0.90;99.90;;;;;;4983997;28;20506;-84
2022/01/25 06:36:08;;;;;;;62.63;38.97;;;-1.00;99.90;;;;;;5004724;28;20022;-83
2022/01/25 06:38:37;;;;;;;65.57;38.60;;;-1.00;99.90;;;;;;5001263;28;20037;-83
2022/01/25 06:41:03;;;;;;;64.43;36.72;;;-1.00;99.90;;;;;;5001491;28;20037;-83
2022/01/25 06:43:29;;;;;;;63.17;37.85;;;-1.10;99.90;;;;;;4983731;28;20053;-83
2022/01/25 06:45:59;;;;;;;57.90;36.63;;;-1.10;99.90;;;;;;5001333;28;20081;-84
2022/01/25 06:48:25;;;;;;;73.05;39.90;;;-1.10;99.90;;;;;;5001256;28;20026;-83
2022/01/25 06:50:51;;;;;;;64.95;37.42;;;-1.20;99.90;;;;;;5001307;28;20030;-83
2022/01/25 06:53:17;;;;;;;60.33;37.90;;;-1.20;99.90;;;;;;5000800;28;20033;-83
2022/01/25 06:55:43;;;;;;;60.20;36.97;;;-1.20;99.90;;;;;;5002726;28;20035;-83
2022/01/25 06:58:09;;;;;;;59.47;36.22;;;-1.20;99.90;;;;;;4985525;28;20045;-83
2022/01/25 07:00:36;;;;;;;65.50;38.78;;;-1.20;99.90;;;;;;4986388;28;20026;-84
2022/01/25 07:03:02;;;;;;;68.88;41.17;;;-1.20;99.90;;;;;;5016735;28;20019;-83
2022/01/25 07:05:28;;;;;;;75.82;38.40;;;-1.30;99.90;;;;;;5001296;28;20368;-84
2022/01/25 07:07:56;;;;;;;73.20;41.85;;;-1.30;99.90;;;;;;5000727;28;20023;-84
2022/01/25 07:10:23;;;;;;;69.72;41.15;;;-1.30;99.90;;;;;;5000643;28;20057;-84
2022/01/25 07:12:49;;;;;;;73.93;39.72;;;-1.30;99.90;;;;;;4999210;28;20050;-84
2022/01/25 07:15:15;;;;;;;83.35;44.67;;;-1.30;99.90;;;;;;5000856;28;20518;-83
2022/01/25 07:17:42;;;;;;;97.55;48.80;;;-1.30;99.90;;;;;;5000296;28;20359;-83
2022/01/25 07:20:09;;;;;;;94.43;47.63;;;-1.30;99.90;;;;;;5005120;28;20105;-83
2022/01/25 07:22:36;;;;;;;100.22;50.97;;;-1.30;99.90;;;;;;4983490;28;20022;-83
2022/01/25 07:25:05;;;;;;;102.50;50.97;;;-1.30;99.90;;;;;;5000447;28;20022;-83
2022/01/25 07:27:31;;;;;;;107.18;48.63;;;-1.20;99.90;;;;;;4982681;28;20026;-83
2022/01/25 07:29:57;;;;;;;116.82;55.95;;;-1.20;99.90;;;;;;5000286;28;20101;-83
2022/01/25 07:32:23;;;;;;;100.63;52.97;;;-1.10;99.90;;;;;;5015478;28;20029;-83
2022/01/25 07:34:49;;;;;;;104.45;53.60;;;-1.10;99.90;;;;;;5002523;28;20479;-83
2022/01/25 07:37:14;;;;;;;104.15;52.85;;;-1.00;99.90;;;;;;5000296;28;20034;-83
2022/01/25 07:39:42;;;;;;;99.25;53.08;;;-1.00;99.90;;;;;;4982799;28;20114;-83
2022/01/25 07:42:09;;;;;;;97.10;52.67;;;-0.90;99.90;;;;;;4999966;28;20098;-83
2022/01/25 07:44:37;;;;;;;102.05;53.35;;;-0.80;99.90;;;;;;5000452;28;20494;-83
2022/01/25 07:47:04;;;;;;;100.07;52.88;;;-0.70;99.90;;;;;;5000362;28;20034;-83
2022/01/25 07:49:31;;;;;;;85.85;52.53;;;-0.60;99.90;;;;;;4982469;28;20027;-83
2022/01/25 07:51:57;;;;;;;86.03;51.42;;;-0.60;99.90;;;;;;5000084;28;20019;-83
2022/01/25 07:54:25;;;;;;;92.45;53.20;;;-0.50;99.90;;;;;;5000224;28;20034;-84
2022/01/25 07:56:52;;;;;;;98.88;55.17;;;-0.40;99.90;;;;;;4982665;28;20026;-84
2022/01/25 07:59:18;;;;;;;216.48;86.60;;;-0.30;99.90;;;;;;5000045;28;20110;-83
2022/01/25 08:01:44;;;;;;;345.02;130.82;;;-0.30;99.90;;;;;;5000084;28;20077;-83
2022/01/25 08:04:11;;;;;;;317.38;125.40;;;-0.20;99.90;;;;;;4982321;28;20533;-84
2022/01/25 08:06:38;;;;;;;417.42;170.73;;;-0.10;99.90;;;;;;4998896;28;20442;-84
2022/01/25 08:09:09;;;;;;;414.88;171.88;;;-0.10;99.90;;;;;;5010128;28;20026;-83
2022/01/25 08:11:35;;;;;;;;;;;0.00;99.90;;;;;;4984153;28;20031;-82
2022/01/25 08:14:12;;;;;;;429.35;173.60;;;0.10;99.90;;;;;;4983989;28;19960;-81
2022/01/25 08:16:43;;;;;;;111.03;60.03;;;0.20;99.90;;;;;;5005744;28;20061;-83
2022/01/25 08:19:12;;;;;;;133.10;83.07;;;0.30;99.90;;;;;;4982981;28;20037;-82
2022/01/25 08:21:41;;;;;;;87.57;56.50;;;0.30;99.90;;;;;;5004410;28;20371;-82
2022/01/25 08:24:08;;;;;;;98.82;56.88;;;0.30;99.90;;;;;;4999408;28;20072;-82
2022/01/25 08:26:34;;;;;;;196.70;103.68;;;0.30;99.90;;;;;;4992000;28;20109;-79
2022/01/25 08:29:01;;;;;;;201.10;107.40;;;0.40;99.90;;;;;;5016681;28;20077;-81
2022/01/25 08:31:27;;;;;;;166.07;89.63;;;0.40;99.90;;;;;;4989392;28;20060;-80
2022/01/25 08:33:53;;;;;;;260.77;128.50;;;0.50;99.90;;;;;;5003545;28;20030;-80
2022/01/25 08:36:20;;;;;;;343.55;180.05;;;0.60;99.90;;;;;;5017074;28;20014;-80
2022/01/25 08:38:46;;;;;;;142.60;80.15;;;0.60;99.90;;;;;;5013583;28;20037;-80
2022/01/25 08:41:13;;;;;;;213.48;114.50;;;0.60;99.90;;;;;;5012744;28;20114;-80
2022/01/25 08:43:39;;;;;;;284.35;86.18;;;0.70;99.90;;;;;;5014587;28;20025;-80
2022/01/25 08:46:05;;;;;;;141.85;77.13;;;0.80;99.90;;;;;;5013476;28;20014;-81
2022/01/25 08:48:31;;;;;;;165.50;95.22;;;0.80;99.90;;;;;;4997546;28;20041;-80
2022/01/25 08:50:58;;;;;;;148.35;80.00;;;0.90;99.90;;;;;;4998348;28;20025;-80
2022/01/25 08:53:24;;;;;;;110.10;64.45;;;1.10;99.90;;;;;;5012497;28;20084;-81
2022/01/25 08:55:50;;;;;;;361.63;179.13;;;1.10;99.90;;;;;;4999704;28;20029;-81
2022/01/25 08:58:16;;;;;;;264.13;135.10;;;1.10;99.90;;;;;;4990016;28;20030;-81
2022/01/25 09:00:42;;;;;;;158.95;61.85;;;1.20;99.90;;;;;;5016279;28;20093;-81
2022/01/25 09:03:08;;;;;;;402.40;130.43;;;1.20;99.90;;;;;;5013390;28;20018;-80
2022/01/25 09:05:35;;;;;;;395.83;139.25;;;1.20;99.90;;;;;;4997424;28;20014;-80
2022/01/25 09:08:04;;;;;;;306.58;121.28;;;1.30;99.90;;;;;;5016281;28;20022;-80
2022/01/25 09:10:30;;;;;;;479.38;200.40;;;1.40;99.90;;;;;;4998262;28;20037;-80
2022/01/25 09:12:57;;;;;;;1015.30;457.80;;;1.50;99.90;;;;;;5013127;28;20081;-80
2022/01/25 09:15:23;;;;;;;446.13;152.20;;;1.60;99.90;;;;;;4988158;28;20030;-80
2022/01/25 09:17:49;;;;;;;311.25;70.53;;;1.70;99.90;;;;;;4988570;28;20029;-80
2022/01/25 09:20:15;;;;;;;205.30;61.03;;;1.70;99.90;;;;;;4986018;28;20022;-79
2022/01/25 09:22:41;;;;;;;267.92;59.83;;;1.80;99.90;;;;;;4981084;28;20023;-80
2022/01/25 09:25:09;;;;;;;154.48;49.75;;;1.90;99.90;;;;;;4984039;28;20019;-80
2022/01/25 09:27:34;;;;;;;118.20;45.22;;;2.00;99.90;;;;;;4998204;28;20032;-80
2022/01/25 09:30:00;;;;;;;239.65;52.30;;;2.10;99.90;;;;;;4981052;28;20470;-79
2022/01/25 09:32:26;;;;;;;268.10;67.75;;;2.20;99.90;;;;;;4961738;28;20450;-80
2022/01/25 09:34:52;;;;;;;112.43;47.40;;;2.30;99.90;;;;;;4981877;28;20101;-79
2022/01/25 09:37:18;;;;;;;155.48;57.55;;;2.30;99.90;;;;;;4986642;28;20038;-80
2022/01/25 09:39:44;;;;;;;187.68;74.05;;;2.40;99.90;;;;;;4978817;28;20023;-80
2022/01/25 09:42:11;;;;;;;94.45;47.78;;;2.40;99.90;;;;;;4961661;28;20047;-80
2022/01/25 09:44:39;;;;;;;87.50;44.10;;;2.50;99.90;;;;;;4961971;28;20019;-80
2022/01/25 09:47:06;;;;;;;73.93;43.55;;;2.50;99.90;;;;;;4978669;28;20030;-80
2022/01/25 09:49:34;;;;;;;80.55;43.17;;;2.50;99.90;;;;;;4978453;28;20023;-80
2022/01/25 09:52:02;;;;;;;84.88;44.67;;;2.50;99.90;;;;;;4978298;28;20062;-80
2022/01/25 09:54:31;;;;;;;88.57;43.30;;;2.50;99.90;;;;;;4978742;28;20031;-80
2022/01/25 09:56:58;;;;;;;90.65;46.95;;;2.50;99.90;;;;;;4960089;28;20066;-80
2022/01/25 09:59:26;;;;;;;91.90;47.83;;;2.60;99.90;;;;;;4960814;28;20053;-80
2022/01/25 10:01:53;;;;;;;82.95;45.22;;;2.60;99.90;;;;;;4960781;28;20035;-79
2022/01/25 10:04:35;;;;;;;84.55;46.60;;;2.70;99.90;;;;;;4977907;28;20019;-79
2022/01/25 10:07:04;;;;;;;81.53;43.05;;;2.80;99.90;;;;;;4978122;28;20472;-79
2022/01/25 10:09:31;;;;;;;78.03;45.50;;;2.90;99.90;;;;;;4977346;28;20446;-80
2022/01/25 10:11:57;;;;;;;93.50;51.47;;;2.90;99.90;;;;;;4961253;28;20041;-81
2022/01/25 10:14:25;;;;;;;108.78;59.85;;;3.00;99.90;;;;;;4960913;28;20103;-81
2022/01/25 10:16:54;;;;;;;89.07;50.83;;;3.10;99.90;;;;;;4977231;28;20042;-81
2022/01/25 10:19:26;;;;;;;79.53;47.85;;;3.20;99.90;;;;;;4960437;28;20367;-77
2022/01/25 10:21:53;;;;;;;84.45;50.05;;;3.20;99.90;;;;;;4965095;28;20035;-78
2022/01/25 10:24:29;;;;;;;78.55;47.90;;;3.30;99.90;;;;;;4978195;28;20050;-78
2022/01/25 10:27:03;;;;;;;169.23;90.72;;;3.40;99.90;;;;;;4959659;28;20034;-77
2022/01/25 10:29:34;;;;;;;85.07;51.60;;;3.40;99.90;;;;;;4981506;28;20077;-76
2022/01/25 10:32:05;;;;;;;104.25;57.38;;;3.50;99.90;;;;;;4996875;28;20027;-75
2022/01/25 10:34:38;;;;;;;227.50;112.95;;;3.50;99.90;;;;;;4997149;28;20069;-76
2022/01/25 10:37:12;;;;;;;109.13;59.75;;;3.60;99.90;;;;;;4990563;28;20069;-77
2022/01/25 10:39:46;;;;;;;71.22;47.55;;;3.60;99.90;;;;;;4972905;28;20023;-77
2022/01/25 10:42:29;;;;;;;79.13;47.53;;;3.70;99.90;;;;;;4979117;28;20031;-76
2022/01/25 10:45:05;;;;;;;77.43;48.50;;;3.90;99.90;;;;;;4980758;28;20022;-76
2022/01/25 10:47:46;;;;;;;76.45;47.83;;;3.90;99.90;;;;;;4983448;28;20035;-76
2022/01/25 10:50:16;;;;;;;75.07;44.83;;;4.00;99.90;;;;;;5012930;28;20034;-76
2022/01/25 10:52:42;;;;;;;69.78;46.42;;;4.10;99.90;;;;;;5000650;28;20035;-76
2022/01/25 10:55:08;;;;;;;74.38;46.05;;;4.20;99.90;;;;;;4983453;28;20030;-76
2022/01/25 10:57:34;;;;;;;69.75;46.00;;;4.30;99.90;;;;;;4993651;28;20147;-76
2022/01/25 11:00:07;;;;;;;73.45;47.13;;;4.40;99.90;;;;;;5000656;28;20061;-76
2022/01/25 11:02:34;;;;;;;72.10;43.92;;;4.50;99.90;;;;;;5000221;28;20022;-75
2022/01/25 11:05:09;;;;;;;70.38;44.38;;;4.60;99.90;;;;;;4982882;28;20025;-76
2022/01/25 11:07:40;;;;;;;66.00;43.50;;;4.70;99.90;;;;;;5000119;28;20058;-76
2022/01/25 11:10:10;;;;;;;76.97;43.33;;;4.80;99.90;;;;;;5000489;28;20026;-77
2022/01/25 11:12:39;;;;;;;58.63;40.80;;;4.80;99.90;;;;;;5003050;28;20027;-76
2022/01/25 11:15:06;;;;;;;62.55;40.55;;;4.90;99.90;;;;;;5000361;28;20406;-76
2022/01/25 11:17:33;;;;;;;53.42;36.17;;;5.00;99.90;;;;;;4982447;28;20494;-76
2022/01/25 11:20:01;;;;;;;55.00;38.00;;;5.10;99.90;;;;;;4985937;28;20100;-76
2022/01/25 11:22:27;;;;;;;64.10;35.50;;;5.20;99.90;;;;;;5001432;28;20073;-76
2022/01/25 11:25:18;;;;;;;61.28;39.97;;;5.30;99.90;;;;;;4999946;28;20497;-76
2022/01/25 11:27:45;;;;;;;54.05;37.38;;;5.40;99.90;;;;;;4998310;28;20025;-76
2022/01/25 11:30:17;;;;;;;54.17;35.75;;;5.50;99.90;;;;;;5000032;28;20038;-76
2022/01/25 11:32:46;;;;;;;52.20;34.85;;;5.60;99.90;;;;;;4982828;28;20034;-77
2022/01/25 11:35:15;;;;;;;60.95;34.42;;;5.70;99.90;;;;;;5004826;28;20026;-77
2022/01/25 11:37:43;;;;;;;50.45;34.40;;;5.90;99.90;;;;;;5003268;28;20030;-75
2022/01/25 11:40:28;;;;;;;55.72;30.77;;;6.20;99.90;;;;;;5003263;28;20023;-75
2022/01/25 11:43:01;;;;;;;50.75;32.85;;;6.30;99.90;;;;;;4982754;28;20026;-76
2022/01/25 11:45:33;;;;;;;43.15;29.88;;;6.40;99.90;;;;;;4982126;28;20553;-75
2022/01/25 11:48:00;;;;;;;47.95;30.08;;;6.50;99.90;;;;;;5001784;28;20084;-78
2022/01/25 11:50:39;;;;;;;277.17;136.90;;;6.60;99.90;;;;;;5026868;28;20034;-77
2022/01/25 11:53:14;;;;;;;143.32;62.72;;;6.70;99.90;;;;;;4977387;28;20038;-78
2022/01/25 11:55:42;;;;;;;51.47;30.45;;;6.80;99.90;;;;;;5016686;28;20030;-77
2022/01/25 11:58:25;;;;;;;299.65;143.48;;;7.00;99.90;;;;;;4986680;28;20526;-77
2022/01/25 12:00:56;;;;;;;383.10;163.55;;;7.10;99.90;;;;;;4982094;28;20033;-78
2022/01/25 12:03:44;;;;;;;48.88;30.38;;;7.20;99.90;;;;;;4999835;28;20547;-78
2022/01/25 12:06:21;;;;;;;44.00;28.88;;;7.30;99.90;;;;;;4999451;28;20049;-78
2022/01/25 12:09:31;;;;;;;38.13;26.48;;;7.40;99.90;;;;;;4997306;28;20068;-77
2022/01/25 12:12:06;;;;;;;118.57;57.30;;;7.50;99.90;;;;;;4992523;28;20088;-77
2022/01/25 12:14:46;;;;;;;337.05;152.52;;;7.60;99.90;;;;;;5007917;28;20633;-78
2022/01/25 12:17:23;;;;;;;67.63;37.88;;;7.70;99.90;;;;;;5010930;28;20018;-77
2022/01/25 12:19:58;;;;;;;94.45;47.22;;;7.80;99.90;;;;;;4991057;28;20033;-78
2022/01/25 12:22:42;;;;;;;75.10;41.70;;;8.00;99.90;;;;;;4983712;28;20053;-77
2022/01/25 12:25:32;;;;;;;651.13;265.13;;;8.10;99.90;;;;;;4999118;28;20019;-77
2022/01/25 12:28:06;;;;;;;78.53;36.13;;;8.20;99.90;;;;;;5014287;28;20084;-78
2022/01/25 12:30:39;;;;;;;97.78;41.33;;;8.20;99.90;;;;;;5013281;28;20128;-77
2022/01/25 12:33:08;;;;;;;230.30;84.65;;;8.30;99.90;;;;;;4998987;28;20061;-77
2022/01/25 12:35:50;;;;;;;82.50;38.72;;;8.30;99.90;;;;;;4984109;28;20031;-77
2022/01/25 12:38:27;;;;;;;41.30;27.52;;;8.40;99.90;;;;;;4992963;28;20026;-78
2022/01/25 12:41:07;;;;;;;39.92;25.92;;;8.50;99.90;;;;;;5013472;28;20022;-78
2022/01/25 12:43:40;;;;;;;29.23;19.95;;;8.60;99.90;;;;;;5013626;28;20050;-78
2022/01/25 12:46:12;;;;;;;24.85;17.92;;;8.70;99.90;;;;;;5017866;28;20026;-78
2022/01/25 12:48:50;;;;;;;18.40;14.77;;;8.80;99.90;;;;;;5016593;28;20397;-78
2022/01/25 12:51:22;;;;;;;30.75;21.65;;;8.80;99.90;;;;;;4998132;28;20022;-78
2022/01/25 12:53:51;;;;;;;38.55;25.35;;;8.90;99.90;;;;;;5006431;28;20375;-78
2022/01/25 12:56:20;;;;;;;26.83;16.27;;;8.90;99.90;;;;;;4978649;28;20113;-77
2022/01/25 12:58:54;;;;;;;20.98;16.42;;;8.90;99.90;;;;;;4980084;28;20111;-78
2022/01/25 13:01:24;;;;;;;21.85;14.32;;;8.90;99.90;;;;;;4994052;28;20022;-78
2022/01/25 13:03:53;;;;;;;18.13;13.60;;;9.00;99.90;;;;;;4999732;28;20026;-77
2022/01/25 13:06:22;;;;;;;21.38;13.02;;;9.10;99.90;;;;;;4999665;28;20394;-77
2022/01/25 13:08:55;;;;;;;18.35;13.65;;;9.00;99.90;;;;;;4994308;28;20397;-77
2022/01/25 13:11:58;;;;;;;17.45;12.30;;;9.10;99.90;;;;;;4989513;28;20501;-78
2022/01/25 13:17:04;;;;;;;22.00;13.05;;;9.10;99.90;;;;;;4998051;28;20037;-77
2022/01/25 13:19:44;;;;;;;25.63;14.82;;;9.10;99.90;;;;;;4980633;28;20022;-78
2022/01/25 13:22:14;;;;;;;26.93;12.90;;;9.10;99.90;;;;;;4994069;28;20037;-78
2022/01/25 13:25:32;;;;;;;17.35;12.45;;;9.30;99.90;;;;;;4981042;28;20030;-78
2022/01/25 13:27:49;;;;;;;16.42;11.55;;;9.30;99.90;;;;;;4994985;28;20046;-78
2022/01/25 13:30:43;;;;;;;16.52;12.38;;;9.40;99.90;;;;;;4976446;28;20053;-78
2022/01/25 13:33:17;;;;;;;15.55;11.70;;;9.40;99.90;;;;;;4986562;28;20034;-78
2022/01/25 13:35:49;;;;;;;18.80;12.40;;;9.50;99.90;;;;;;4973915;28;20030;-78
2022/01/25 13:38:18;;;;;;;15.85;12.20;;;9.60;99.90;;;;;;4980256;28;20114;-78
2022/01/25 13:46:43;;;;;;;14.90;12.23;;;9.60;99.90;;;;;;5001530;28;20026;-77
2022/01/25 13:49:11;;;;;;;19.02;12.20;;;9.60;99.90;;;;;;4998026;28;20521;-78
2022/01/25 13:51:49;;;;;;;16.38;11.63;;;9.50;99.90;;;;;;4980354;28;20022;-78
2022/01/25 13:54:18;;;;;;;17.67;11.50;;;9.50;99.90;;;;;;4998236;28;20078;-77
2022/01/25 13:56:45;;;;;;;15.63;11.75;;;9.50;99.90;;;;;;4997565;28;20019;-78
2022/01/25 13:59:11;;;;;;;19.65;11.60;;;9.50;99.90;;;;;;4997949;28;20079;-78
2022/01/25 14:01:39;;;;;;;16.27;11.45;;;9.50;99.90;;;;;;4975332;28;20023;-78
2022/01/25 14:04:28;;;;;;;14.57;12.20;;;9.50;99.90;;;;;;4991485;28;20502;-78
2022/01/25 14:07:00;;;;;;;14.43;10.98;;;9.50;99.90;;;;;;4997659;28;20030;-79
2022/01/25 14:09:34;;;;;;;17.75;11.48;;;9.50;99.90;;;;;;4997263;28;20030;-79
2022/01/25 14:23:41;;;;;;;14.02;8.75;;;9.40;99.90;;;;;;4989901;28;20081;-78
2022/01/25 14:25:46;;;;;;;10.48;8.65;;;9.40;99.90;;;;;;4990609;28;20085;-79
2022/01/25 14:28:17;;;;;;;10.00;8.63;;;9.40;99.90;;;;;;4983557;28;20026;-79
2022/01/25 14:30:46;;;;;;;16.77;10.27;;;9.30;99.90;;;;;;5000933;28;20125;-79
2022/01/25 14:33:15;;;;;;;12.77;8.52;;;9.30;99.90;;;;;;5001311;28;20027;-79
2022/01/25 14:36:00;;;;;;;12.10;8.90;;;9.20;99.90;;;;;;4986396;28;20026;-79
2022/01/25 14:38:31;;;;;;;14.43;9.20;;;9.20;99.90;;;;;;5000764;28;20030;-78